sensor_id;sensor_type;location;lat;lon;timestamp;P1;durP1;ratioP1;P2;durP2;ratioP2
80293;SDS011;69594;43.516;1.498;2023-04-25T00:01:44;5.65;;;2.30;;
80293;SDS011;69594;43.516;1.498;2023-04-25T00:04:10;4.83;;;2.20;;
80293;SDS011;69594;43.516;1.498;2023-04-25T00:06:36;4.00;;;2.03;;
80293;SDS011;69594;43.516;1.498;2023-04-25T00:09:05;4.27;;;2.20;;
80293;SDS011;69594;43.516;1.498;2023-04-25T00:11:35;5.20;;;2.00;;
80293;SDS011;69594;43.516;1.498;2023-04-25T00:14:00;5.23;;;2.13;;
80293;SDS011;69594;43.516;1.498;2023-04-25T00:16:27;6.03;;;2.40;;
80293;SDS011;69594;43.516;1.498;2023-04-25T00:18:54;4.90;;;2.00;;
80293;SDS011;69594;43.516;1.498;2023-04-25T00:21:20;5.10;;;2.37;;
80293;SDS011;69594;43.516;1.498;2023-04-25T00:23:46;5.68;;;2.45;;
80293;SDS011;69594;43.516;1.498;2023-04-25T00:26:11;4.15;;;1.88;;
80293;SDS011;69594;43.516;1.498;2023-04-25T00:28:38;3.23;;;1.60;;
80293;SDS011;69594;43.516;1.498;2023-04-25T00:31:04;2.77;;;1.73;;
80293;SDS011;69594;43.516;1.498;2023-04-25T00:33:30;3.47;;;1.80;;
80293;SDS011;69594;43.516;1.498;2023-04-25T00:35:55;4.43;;;1.67;;
80293;SDS011;69594;43.516;1.498;2023-04-25T00:38:21;4.40;;;2.07;;
80293;SDS011;69594;43.516;1.498;2023-04-25T00:40:47;5.07;;;1.90;;
80293;SDS011;69594;43.516;1.498;2023-04-25T00:43:12;4.95;;;1.83;;
80293;SDS011;69594;43.516;1.498;2023-04-25T00:45:39;3.87;;;2.00;;
80293;SDS011;69594;43.516;1.498;2023-04-25T00:48:05;3.42;;;1.45;;
80293;SDS011;69594;43.516;1.498;2023-04-25T00:50:30;4.57;;;1.50;;
80293;SDS011;69594;43.516;1.498;2023-04-25T00:52:58;3.60;;;1.30;;
80293;SDS011;69594;43.516;1.498;2023-04-25T00:55:24;3.10;;;1.45;;
80293;SDS011;69594;43.516;1.498;2023-04-25T00:57:49;2.80;;;1.60;;
80293;SDS011;69594;43.516;1.498;2023-04-25T01:00:16;3.03;;;1.20;;
80293;SDS011;69594;43.516;1.498;2023-04-25T01:02:42;1.60;;;1.15;;
80293;SDS011;69594;43.516;1.498;2023-04-25T01:05:08;3.63;;;1.23;;
80293;SDS011;69594;43.516;1.498;2023-04-25T01:07:34;2.30;;;1.53;;
80293;SDS011;69594;43.516;1.498;2023-04-25T01:09:59;1.73;;;1.10;;
80293;SDS011;69594;43.516;1.498;2023-04-25T01:12:25;1.47;;;1.00;;
80293;SDS011;69594;43.516;1.498;2023-04-25T01:14:50;1.73;;;0.93;;
80293;SDS011;69594;43.516;1.498;2023-04-25T01:17:18;2.40;;;1.00;;
80293;SDS011;69594;43.516;1.498;2023-04-25T01:19:43;1.65;;;0.98;;
80293;SDS011;69594;43.516;1.498;2023-04-25T01:22:11;1.33;;;0.90;;
80293;SDS011;69594;43.516;1.498;2023-04-25T01:24:36;2.07;;;0.70;;
80293;SDS011;69594;43.516;1.498;2023-04-25T01:27:02;2.67;;;0.70;;
80293;SDS011;69594;43.516;1.498;2023-04-25T01:29:28;1.85;;;0.77;;
80293;SDS011;69594;43.516;1.498;2023-04-25T01:31:55;0.73;;;0.70;;
80293;SDS011;69594;43.516;1.498;2023-04-25T01:34:24;2.05;;;0.63;;
80293;SDS011;69594;43.516;1.498;2023-04-25T01:36:50;1.50;;;0.70;;
80293;SDS011;69594;43.516;1.498;2023-04-25T01:39:19;2.00;;;0.50;;
80293;SDS011;69594;43.516;1.498;2023-04-25T01:41:47;0.88;;;0.63;;
80293;SDS011;69594;43.516;1.498;2023-04-25T01:44:13;0.73;;;0.50;;
80293;SDS011;69594;43.516;1.498;2023-04-25T01:46:39;1.00;;;0.60;;
80293;SDS011;69594;43.516;1.498;2023-04-25T01:49:05;0.82;;;0.60;;
80293;SDS011;69594;43.516;1.498;2023-04-25T01:51:30;0.70;;;0.70;;
80293;SDS011;69594;43.516;1.498;2023-04-25T01:53:56;0.70;;;0.60;;
80293;SDS011;69594;43.516;1.498;2023-04-25T01:56:22;1.30;;;0.70;;
80293;SDS011;69594;43.516;1.498;2023-04-25T01:58:48;0.50;;;0.50;;
80293;SDS011;69594;43.516;1.498;2023-04-25T02:01:13;1.40;;;0.52;;
80293;SDS011;69594;43.516;1.498;2023-04-25T02:03:39;0.40;;;0.40;;
80293;SDS011;69594;43.516;1.498;2023-04-25T02:06:06;1.88;;;0.70;;
80293;SDS011;69594;43.516;1.498;2023-04-25T02:08:34;0.80;;;0.50;;
80293;SDS011;69594;43.516;1.498;2023-04-25T02:10:59;0.50;;;0.50;;
80293;SDS011;69594;43.516;1.498;2023-04-25T02:13:25;0.50;;;0.50;;
80293;SDS011;69594;43.516;1.498;2023-04-25T02:15:50;0.52;;;0.50;;
80293;SDS011;69594;43.516;1.498;2023-04-25T02:18:19;0.63;;;0.50;;
80293;SDS011;69594;43.516;1.498;2023-04-25T02:20:53;0.90;;;0.70;;
80293;SDS011;69594;43.516;1.498;2023-04-25T02:23:19;0.43;;;0.43;;
80293;SDS011;69594;43.516;1.498;2023-04-25T02:25:45;0.65;;;0.43;;
80293;SDS011;69594;43.516;1.498;2023-04-25T02:28:10;1.33;;;0.60;;
80293;SDS011;69594;43.516;1.498;2023-04-25T02:30:36;0.40;;;0.40;;
80293;SDS011;69594;43.516;1.498;2023-04-25T02:33:01;0.50;;;0.50;;
80293;SDS011;69594;43.516;1.498;2023-04-25T02:35:27;0.60;;;0.60;;
80293;SDS011;69594;43.516;1.498;2023-04-25T02:37:53;0.40;;;0.40;;
80293;SDS011;69594;43.516;1.498;2023-04-25T02:40:18;0.50;;;0.50;;
80293;SDS011;69594;43.516;1.498;2023-04-25T02:42:44;1.20;;;0.50;;
80293;SDS011;69594;43.516;1.498;2023-04-25T02:45:11;0.50;;;0.50;;
80293;SDS011;69594;43.516;1.498;2023-04-25T02:47:36;1.03;;;0.50;;
80293;SDS011;69594;43.516;1.498;2023-04-25T02:50:02;2.00;;;0.50;;
80293;SDS011;69594;43.516;1.498;2023-04-25T02:52:28;0.50;;;0.50;;
80293;SDS011;69594;43.516;1.498;2023-04-25T02:54:53;1.03;;;0.50;;
80293;SDS011;69594;43.516;1.498;2023-04-25T02:57:18;0.30;;;0.30;;
80293;SDS011;69594;43.516;1.498;2023-04-25T02:59:46;0.50;;;0.50;;
80293;SDS011;69594;43.516;1.498;2023-04-25T03:02:11;1.23;;;0.40;;
80293;SDS011;69594;43.516;1.498;2023-04-25T03:04:37;1.07;;;0.50;;
80293;SDS011;69594;43.516;1.498;2023-04-25T03:07:04;0.47;;;0.47;;
80293;SDS011;69594;43.516;1.498;2023-04-25T03:09:29;0.90;;;0.40;;
80293;SDS011;69594;43.516;1.498;2023-04-25T03:11:55;1.47;;;0.60;;
80293;SDS011;69594;43.516;1.498;2023-04-25T03:14:20;0.57;;;0.45;;
80293;SDS011;69594;43.516;1.498;2023-04-25T03:16:46;0.40;;;0.40;;
80293;SDS011;69594;43.516;1.498;2023-04-25T03:19:11;0.43;;;0.43;;
80293;SDS011;69594;43.516;1.498;2023-04-25T03:21:36;0.67;;;0.60;;
80293;SDS011;69594;43.516;1.498;2023-04-25T03:24:03;0.43;;;0.43;;
80293;SDS011;69594;43.516;1.498;2023-04-25T03:26:30;0.50;;;0.50;;
80293;SDS011;69594;43.516;1.498;2023-04-25T03:28:56;0.50;;;0.50;;
80293;SDS011;69594;43.516;1.498;2023-04-25T03:31:21;0.90;;;0.50;;
80293;SDS011;69594;43.516;1.498;2023-04-25T03:33:47;0.60;;;0.60;;
80293;SDS011;69594;43.516;1.498;2023-04-25T03:36:13;0.40;;;0.40;;
80293;SDS011;69594;43.516;1.498;2023-04-25T03:38:38;0.90;;;0.60;;
80293;SDS011;69594;43.516;1.498;2023-04-25T03:41:04;1.50;;;0.40;;
80293;SDS011;69594;43.516;1.498;2023-04-25T03:43:29;0.50;;;0.50;;
80293;SDS011;69594;43.516;1.498;2023-04-25T03:45:55;0.40;;;0.40;;
80293;SDS011;69594;43.516;1.498;2023-04-25T03:48:20;0.50;;;0.50;;
80293;SDS011;69594;43.516;1.498;2023-04-25T03:50:47;1.08;;;0.50;;
80293;SDS011;69594;43.516;1.498;2023-04-25T03:53:13;1.38;;;0.70;;
80293;SDS011;69594;43.516;1.498;2023-04-25T03:55:38;2.17;;;0.60;;
80293;SDS011;69594;43.516;1.498;2023-04-25T03:58:03;0.40;;;0.40;;
80293;SDS011;69594;43.516;1.498;2023-04-25T04:00:29;0.40;;;0.40;;
80293;SDS011;69594;43.516;1.498;2023-04-25T04:02:55;0.53;;;0.53;;
80293;SDS011;69594;43.516;1.498;2023-04-25T04:05:20;1.57;;;0.60;;
80293;SDS011;69594;43.516;1.498;2023-04-25T04:07:46;2.47;;;0.40;;
80293;SDS011;69594;43.516;1.498;2023-04-25T04:10:11;0.40;;;0.40;;
80293;SDS011;69594;43.516;1.498;2023-04-25T04:12:37;0.50;;;0.43;;
80293;SDS011;69594;43.516;1.498;2023-04-25T04:15:06;0.80;;;0.45;;
80293;SDS011;69594;43.516;1.498;2023-04-25T04:17:34;0.77;;;0.50;;
80293;SDS011;69594;43.516;1.498;2023-04-25T04:19:59;0.88;;;0.45;;
80293;SDS011;69594;43.516;1.498;2023-04-25T04:22:26;0.60;;;0.40;;
80293;SDS011;69594;43.516;1.498;2023-04-25T04:24:51;1.23;;;0.67;;
80293;SDS011;69594;43.516;1.498;2023-04-25T04:27:21;1.37;;;0.70;;
80293;SDS011;69594;43.516;1.498;2023-04-25T04:29:46;1.48;;;0.60;;
80293;SDS011;69594;43.516;1.498;2023-04-25T04:32:12;0.87;;;0.50;;
80293;SDS011;69594;43.516;1.498;2023-04-25T04:34:38;0.50;;;0.50;;
80293;SDS011;69594;43.516;1.498;2023-04-25T04:37:04;0.90;;;0.50;;
80293;SDS011;69594;43.516;1.498;2023-04-25T04:39:30;1.02;;;0.60;;
80293;SDS011;69594;43.516;1.498;2023-04-25T04:41:55;0.67;;;0.60;;
80293;SDS011;69594;43.516;1.498;2023-04-25T04:44:21;1.42;;;0.63;;
80293;SDS011;69594;43.516;1.498;2023-04-25T04:46:46;1.07;;;0.60;;
80293;SDS011;69594;43.516;1.498;2023-04-25T04:49:12;0.70;;;0.60;;
80293;SDS011;69594;43.516;1.498;2023-04-25T04:51:38;2.55;;;1.00;;
80293;SDS011;69594;43.516;1.498;2023-04-25T04:54:05;1.50;;;0.70;;
80293;SDS011;69594;43.516;1.498;2023-04-25T04:56:31;1.00;;;0.60;;
80293;SDS011;69594;43.516;1.498;2023-04-25T04:58:57;0.87;;;0.50;;
80293;SDS011;69594;43.516;1.498;2023-04-25T05:01:23;2.78;;;0.70;;
80293;SDS011;69594;43.516;1.498;2023-04-25T05:03:48;1.40;;;0.65;;
80293;SDS011;69594;43.516;1.498;2023-04-25T05:06:14;1.77;;;0.88;;
80293;SDS011;69594;43.516;1.498;2023-04-25T05:08:40;1.20;;;0.90;;
80293;SDS011;69594;43.516;1.498;2023-04-25T05:11:05;0.60;;;0.50;;
80293;SDS011;69594;43.516;1.498;2023-04-25T05:13:31;1.20;;;0.60;;
80293;SDS011;69594;43.516;1.498;2023-04-25T05:15:56;0.87;;;0.70;;
80293;SDS011;69594;43.516;1.498;2023-04-25T05:18:21;1.23;;;0.60;;
80293;SDS011;69594;43.516;1.498;2023-04-25T05:20:48;1.27;;;0.70;;
80293;SDS011;69594;43.516;1.498;2023-04-25T05:23:13;1.17;;;0.70;;
80293;SDS011;69594;43.516;1.498;2023-04-25T05:25:42;1.43;;;0.97;;
80293;SDS011;69594;43.516;1.498;2023-04-25T05:28:07;2.03;;;0.73;;
80293;SDS011;69594;43.516;1.498;2023-04-25T05:30:33;1.20;;;0.70;;
80293;SDS011;69594;43.516;1.498;2023-04-25T05:32:59;0.88;;;0.70;;
80293;SDS011;69594;43.516;1.498;2023-04-25T05:35:25;0.90;;;0.80;;
80293;SDS011;69594;43.516;1.498;2023-04-25T05:37:51;1.20;;;0.73;;
80293;SDS011;69594;43.516;1.498;2023-04-25T05:40:16;2.30;;;0.70;;
80293;SDS011;69594;43.516;1.498;2023-04-25T05:42:41;0.90;;;0.60;;
80293;SDS011;69594;43.516;1.498;2023-04-25T05:45:07;0.90;;;0.70;;
80293;SDS011;69594;43.516;1.498;2023-04-25T05:47:33;1.20;;;0.77;;
80293;SDS011;69594;43.516;1.498;2023-04-25T05:49:58;0.70;;;0.70;;
80293;SDS011;69594;43.516;1.498;2023-04-25T05:52:23;2.33;;;0.90;;
80293;SDS011;69594;43.516;1.498;2023-04-25T05:54:49;1.33;;;0.80;;
80293;SDS011;69594;43.516;1.498;2023-04-25T05:59:51;1.80;;;1.00;;
80293;SDS011;69594;43.516;1.498;2023-04-25T06:02:17;1.63;;;0.90;;
80293;SDS011;69594;43.516;1.498;2023-04-25T06:04:43;0.65;;;0.65;;
80293;SDS011;69594;43.516;1.498;2023-04-25T06:07:09;0.50;;;0.50;;
80293;SDS011;69594;43.516;1.498;2023-04-25T06:09:34;0.90;;;0.70;;
80293;SDS011;69594;43.516;1.498;2023-04-25T06:12:00;0.90;;;0.70;;
80293;SDS011;69594;43.516;1.498;2023-04-25T06:14:26;0.70;;;0.70;;
80293;SDS011;69594;43.516;1.498;2023-04-25T06:16:51;1.00;;;0.70;;
80293;SDS011;69594;43.516;1.498;2023-04-25T06:19:16;1.47;;;0.80;;
80293;SDS011;69594;43.516;1.498;2023-04-25T06:21:43;0.87;;;0.70;;
80293;SDS011;69594;43.516;1.498;2023-04-25T06:24:09;0.85;;;0.70;;
80293;SDS011;69594;43.516;1.498;2023-04-25T06:26:34;1.60;;;0.80;;
80293;SDS011;69594;43.516;1.498;2023-04-25T06:29:00;1.70;;;0.90;;
80293;SDS011;69594;43.516;1.498;2023-04-25T06:31:27;3.60;;;0.80;;
80293;SDS011;69594;43.516;1.498;2023-04-25T06:33:53;0.93;;;0.73;;
80293;SDS011;69594;43.516;1.498;2023-04-25T06:36:20;0.60;;;0.60;;
80293;SDS011;69594;43.516;1.498;2023-04-25T06:38:50;0.98;;;0.75;;
80293;SDS011;69594;43.516;1.498;2023-04-25T06:41:16;2.17;;;0.60;;
80293;SDS011;69594;43.516;1.498;2023-04-25T06:43:41;3.50;;;1.00;;
80293;SDS011;69594;43.516;1.498;2023-04-25T06:46:06;1.60;;;0.90;;
80293;SDS011;69594;43.516;1.498;2023-04-25T06:48:32;4.23;;;1.27;;
80293;SDS011;69594;43.516;1.498;2023-04-25T06:50:57;1.80;;;1.00;;
80293;SDS011;69594;43.516;1.498;2023-04-25T06:53:23;3.63;;;0.90;;
80293;SDS011;69594;43.516;1.498;2023-04-25T06:55:48;2.27;;;0.80;;
80293;SDS011;69594;43.516;1.498;2023-04-25T06:58:14;1.03;;;0.60;;
80293;SDS011;69594;43.516;1.498;2023-04-25T07:00:40;1.17;;;0.80;;
80293;SDS011;69594;43.516;1.498;2023-04-25T07:03:06;1.33;;;0.80;;
80293;SDS011;69594;43.516;1.498;2023-04-25T07:05:31;1.47;;;0.90;;
80293;SDS011;69594;43.516;1.498;2023-04-25T07:07:57;0.93;;;0.70;;
80293;SDS011;69594;43.516;1.498;2023-04-25T07:10:23;0.67;;;0.50;;
80293;SDS011;69594;43.516;1.498;2023-04-25T07:12:50;1.23;;;0.70;;
80293;SDS011;69594;43.516;1.498;2023-04-25T07:15:15;1.37;;;0.80;;
80293;SDS011;69594;43.516;1.498;2023-04-25T07:17:41;5.03;;;1.20;;
80293;SDS011;69594;43.516;1.498;2023-04-25T07:20:06;2.10;;;1.10;;
80293;SDS011;69594;43.516;1.498;2023-04-25T07:22:34;2.40;;;1.10;;
80293;SDS011;69594;43.516;1.498;2023-04-25T07:24:59;1.20;;;0.82;;
80293;SDS011;69594;43.516;1.498;2023-04-25T07:27:25;3.17;;;0.83;;
80293;SDS011;69594;43.516;1.498;2023-04-25T07:29:50;1.23;;;0.80;;
80293;SDS011;69594;43.516;1.498;2023-04-25T07:32:16;1.00;;;0.68;;
80293;SDS011;69594;43.516;1.498;2023-04-25T07:34:41;2.33;;;0.90;;
80293;SDS011;69594;43.516;1.498;2023-04-25T07:37:07;3.60;;;0.80;;
80293;SDS011;69594;43.516;1.498;2023-04-25T07:39:32;1.80;;;1.23;;
80293;SDS011;69594;43.516;1.498;2023-04-25T07:41:58;1.33;;;0.90;;
80293;SDS011;69594;43.516;1.498;2023-04-25T07:44:25;2.35;;;0.95;;
80293;SDS011;69594;43.516;1.498;2023-04-25T07:46:52;2.80;;;0.80;;
80293;SDS011;69594;43.516;1.498;2023-04-25T07:49:23;0.90;;;0.75;;
80293;SDS011;69594;43.516;1.498;2023-04-25T07:51:48;1.13;;;0.90;;
80293;SDS011;69594;43.516;1.498;2023-04-25T07:54:14;2.70;;;1.30;;
80293;SDS011;69594;43.516;1.498;2023-04-25T07:56:40;0.70;;;0.70;;
80293;SDS011;69594;43.516;1.498;2023-04-25T07:59:06;0.90;;;0.50;;
80293;SDS011;69594;43.516;1.498;2023-04-25T08:01:31;0.50;;;0.50;;
80293;SDS011;69594;43.516;1.498;2023-04-25T08:03:57;1.13;;;0.57;;
80293;SDS011;69594;43.516;1.498;2023-04-25T08:06:25;0.93;;;0.60;;
80293;SDS011;69594;43.516;1.498;2023-04-25T08:08:51;1.05;;;0.70;;
80293;SDS011;69594;43.516;1.498;2023-04-25T08:11:16;0.87;;;0.60;;
80293;SDS011;69594;43.516;1.498;2023-04-25T08:13:43;0.57;;;0.57;;
80293;SDS011;69594;43.516;1.498;2023-04-25T08:16:08;0.40;;;0.40;;
80293;SDS011;69594;43.516;1.498;2023-04-25T08:18:34;0.43;;;0.43;;
80293;SDS011;69594;43.516;1.498;2023-04-25T08:20:59;1.60;;;0.50;;
80293;SDS011;69594;43.516;1.498;2023-04-25T08:23:26;1.80;;;0.63;;
80293;SDS011;69594;43.516;1.498;2023-04-25T08:25:51;1.33;;;0.50;;
80293;SDS011;69594;43.516;1.498;2023-04-25T08:28:17;0.55;;;0.55;;
80293;SDS011;69594;43.516;1.498;2023-04-25T08:30:43;3.00;;;0.50;;
80293;SDS011;69594;43.516;1.498;2023-04-25T08:33:10;0.90;;;0.60;;
80293;SDS011;69594;43.516;1.498;2023-04-25T08:35:37;1.73;;;0.73;;
80293;SDS011;69594;43.516;1.498;2023-04-25T08:38:02;2.40;;;0.70;;
80293;SDS011;69594;43.516;1.498;2023-04-25T08:40:28;0.60;;;0.60;;
80293;SDS011;69594;43.516;1.498;2023-04-25T08:42:57;1.08;;;0.73;;
80293;SDS011;69594;43.516;1.498;2023-04-25T08:45:23;1.42;;;0.60;;
80293;SDS011;69594;43.516;1.498;2023-04-25T08:47:52;1.65;;;0.50;;
80293;SDS011;69594;43.516;1.498;2023-04-25T08:50:18;0.57;;;0.50;;
80293;SDS011;69594;43.516;1.498;2023-04-25T08:52:46;1.13;;;0.50;;
80293;SDS011;69594;43.516;1.498;2023-04-25T08:55:13;1.30;;;0.60;;
80293;SDS011;69594;43.516;1.498;2023-04-25T08:57:40;1.67;;;0.70;;
80293;SDS011;69594;43.516;1.498;2023-04-25T09:00:08;0.52;;;0.52;;
80293;SDS011;69594;43.516;1.498;2023-04-25T09:02:34;4.60;;;1.27;;
80293;SDS011;69594;43.516;1.498;2023-04-25T09:05:00;5.63;;;2.90;;
80293;SDS011;69594;43.516;1.498;2023-04-25T09:07:29;1.40;;;1.00;;
80293;SDS011;69594;43.516;1.498;2023-04-25T09:09:55;2.45;;;1.08;;
80293;SDS011;69594;43.516;1.498;2023-04-25T09:12:21;1.17;;;0.70;;
80293;SDS011;69594;43.516;1.498;2023-04-25T09:15:09;1.38;;;0.80;;
80293;SDS011;69594;43.516;1.498;2023-04-25T09:17:37;0.80;;;0.80;;
80293;SDS011;69594;43.516;1.498;2023-04-25T09:20:15;0.60;;;0.60;;
80293;SDS011;69594;43.516;1.498;2023-04-25T09:22:40;1.20;;;1.00;;
80293;SDS011;69594;43.516;1.498;2023-04-25T09:25:08;1.17;;;0.63;;
80293;SDS011;69594;43.516;1.498;2023-04-25T09:27:35;1.17;;;0.90;;
80293;SDS011;69594;43.516;1.498;2023-04-25T09:30:01;0.97;;;0.67;;
80293;SDS011;69594;43.516;1.498;2023-04-25T09:32:27;0.63;;;0.60;;
80293;SDS011;69594;43.516;1.498;2023-04-25T09:34:54;1.03;;;0.50;;
80293;SDS011;69594;43.516;1.498;2023-04-25T09:39:48;0.45;;;0.40;;
80293;SDS011;69594;43.516;1.498;2023-04-25T09:42:15;0.60;;;0.60;;
80293;SDS011;69594;43.516;1.498;2023-04-25T09:44:42;0.75;;;0.60;;
80293;SDS011;69594;43.516;1.498;2023-04-25T09:47:13;2.03;;;0.60;;
80293;SDS011;69594;43.516;1.498;2023-04-25T09:49:40;1.88;;;0.90;;
80293;SDS011;69594;43.516;1.498;2023-04-25T09:52:19;1.02;;;0.65;;
80293;SDS011;69594;43.516;1.498;2023-04-25T09:54:46;2.58;;;0.70;;
80293;SDS011;69594;43.516;1.498;2023-04-25T09:57:17;1.63;;;0.60;;
80293;SDS011;69594;43.516;1.498;2023-04-25T09:59:51;3.07;;;0.50;;
80293;SDS011;69594;43.516;1.498;2023-04-25T10:02:27;0.60;;;0.57;;
80293;SDS011;69594;43.516;1.498;2023-04-25T10:04:53;1.02;;;0.60;;
80293;SDS011;69594;43.516;1.498;2023-04-25T10:07:23;0.90;;;0.60;;
80293;SDS011;69594;43.516;1.498;2023-04-25T10:10:00;0.90;;;0.57;;
80293;SDS011;69594;43.516;1.498;2023-04-25T10:12:28;1.30;;;0.73;;
80293;SDS011;69594;43.516;1.498;2023-04-25T10:14:57;0.70;;;0.60;;
80293;SDS011;69594;43.516;1.498;2023-04-25T10:17:27;1.00;;;0.65;;
80293;SDS011;69594;43.516;1.498;2023-04-25T10:19:53;2.00;;;0.80;;
80293;SDS011;69594;43.516;1.498;2023-04-25T10:22:36;3.47;;;1.00;;
80293;SDS011;69594;43.516;1.498;2023-04-25T10:25:04;1.20;;;0.80;;
80293;SDS011;69594;43.516;1.498;2023-04-25T10:27:31;2.95;;;0.70;;
80293;SDS011;69594;43.516;1.498;2023-04-25T10:30:07;2.23;;;0.60;;
80293;SDS011;69594;43.516;1.498;2023-04-25T10:32:36;1.05;;;0.52;;
80293;SDS011;69594;43.516;1.498;2023-04-25T10:35:12;1.35;;;0.73;;
80293;SDS011;69594;43.516;1.498;2023-04-25T10:40:25;1.97;;;0.90;;
80293;SDS011;69594;43.516;1.498;2023-04-25T10:42:54;0.70;;;0.60;;
80293;SDS011;69594;43.516;1.498;2023-04-25T10:45:51;0.63;;;0.60;;
80293;SDS011;69594;43.516;1.498;2023-04-25T10:48:25;0.60;;;0.60;;
80293;SDS011;69594;43.516;1.498;2023-04-25T10:51:06;1.47;;;0.67;;
80293;SDS011;69594;43.516;1.498;2023-04-25T10:53:43;1.10;;;0.77;;
80293;SDS011;69594;43.516;1.498;2023-04-25T10:56:10;1.13;;;0.63;;
80293;SDS011;69594;43.516;1.498;2023-04-25T10:58:46;0.60;;;0.45;;
80293;SDS011;69594;43.516;1.498;2023-04-25T11:01:12;0.70;;;0.70;;
80293;SDS011;69594;43.516;1.498;2023-04-25T11:03:42;0.52;;;0.52;;
80293;SDS011;69594;43.516;1.498;2023-04-25T11:06:18;1.80;;;0.73;;
80293;SDS011;69594;43.516;1.498;2023-04-25T11:08:49;1.58;;;0.70;;
80293;SDS011;69594;43.516;1.498;2023-04-25T11:11:16;0.95;;;0.60;;
80293;SDS011;69594;43.516;1.498;2023-04-25T11:13:44;0.60;;;0.60;;
80293;SDS011;69594;43.516;1.498;2023-04-25T11:16:13;0.70;;;0.70;;
80293;SDS011;69594;43.516;1.498;2023-04-25T11:18:42;1.17;;;1.08;;
80293;SDS011;69594;43.516;1.498;2023-04-25T11:21:09;1.10;;;1.00;;
80293;SDS011;69594;43.516;1.498;2023-04-25T11:23:36;1.30;;;0.85;;
80293;SDS011;69594;43.516;1.498;2023-04-25T11:26:02;1.00;;;0.53;;
80293;SDS011;69594;43.516;1.498;2023-04-25T11:28:29;1.25;;;1.10;;
80293;SDS011;69594;43.516;1.498;2023-04-25T11:30:55;1.55;;;0.90;;
80293;SDS011;69594;43.516;1.498;2023-04-25T11:33:24;1.13;;;0.80;;
80293;SDS011;69594;43.516;1.498;2023-04-25T11:35:51;1.02;;;0.65;;
80293;SDS011;69594;43.516;1.498;2023-04-25T11:38:24;0.80;;;0.70;;
80293;SDS011;69594;43.516;1.498;2023-04-25T11:40:53;0.70;;;0.60;;
80293;SDS011;69594;43.516;1.498;2023-04-25T11:43:20;1.50;;;0.93;;
80293;SDS011;69594;43.516;1.498;2023-04-25T11:45:47;2.03;;;0.90;;
80293;SDS011;69594;43.516;1.498;2023-04-25T11:48:14;1.95;;;0.70;;
80293;SDS011;69594;43.516;1.498;2023-04-25T11:50:39;2.40;;;0.80;;
80293;SDS011;69594;43.516;1.498;2023-04-25T11:53:05;0.87;;;0.70;;
80293;SDS011;69594;43.516;1.498;2023-04-25T11:55:31;1.75;;;0.70;;
80293;SDS011;69594;43.516;1.498;2023-04-25T11:57:59;1.23;;;0.73;;
80293;SDS011;69594;43.516;1.498;2023-04-25T12:00:25;1.20;;;0.82;;
80293;SDS011;69594;43.516;1.498;2023-04-25T12:02:55;1.80;;;0.77;;
80293;SDS011;69594;43.516;1.498;2023-04-25T12:05:26;0.70;;;0.70;;
80293;SDS011;69594;43.516;1.498;2023-04-25T12:07:57;1.73;;;0.88;;
80293;SDS011;69594;43.516;1.498;2023-04-25T12:10:23;0.87;;;0.83;;
80293;SDS011;69594;43.516;1.498;2023-04-25T12:12:50;5.07;;;1.08;;
80293;SDS011;69594;43.516;1.498;2023-04-25T12:15:17;1.10;;;0.90;;
80293;SDS011;69594;43.516;1.498;2023-04-25T12:17:51;1.10;;;0.97;;
80293;SDS011;69594;43.516;1.498;2023-04-25T12:20:19;1.02;;;0.93;;
80293;SDS011;69594;43.516;1.498;2023-04-25T12:22:48;0.82;;;0.80;;
80293;SDS011;69594;43.516;1.498;2023-04-25T12:33:37;3.13;;;1.00;;
80293;SDS011;69594;43.516;1.498;2023-04-25T12:36:04;1.52;;;1.00;;
80293;SDS011;69594;43.516;1.498;2023-04-25T12:38:38;1.13;;;0.70;;
80293;SDS011;69594;43.516;1.498;2023-04-25T12:41:05;0.95;;;0.70;;
80293;SDS011;69594;43.516;1.498;2023-04-25T12:43:31;1.20;;;0.70;;
80293;SDS011;69594;43.516;1.498;2023-04-25T12:45:56;1.30;;;1.00;;
80293;SDS011;69594;43.516;1.498;2023-04-25T12:48:25;1.43;;;0.73;;
80293;SDS011;69594;43.516;1.498;2023-04-25T12:50:51;4.32;;;0.85;;
80293;SDS011;69594;43.516;1.498;2023-04-25T12:53:21;1.65;;;1.10;;
80293;SDS011;69594;43.516;1.498;2023-04-25T12:55:50;2.25;;;1.02;;
80293;SDS011;69594;43.516;1.498;2023-04-25T12:58:17;2.20;;;1.10;;
80293;SDS011;69594;43.516;1.498;2023-04-25T13:00:45;2.28;;;1.00;;
80293;SDS011;69594;43.516;1.498;2023-04-25T13:03:11;1.58;;;0.90;;
80293;SDS011;69594;43.516;1.498;2023-04-25T13:05:37;1.43;;;1.00;;
80293;SDS011;69594;43.516;1.498;2023-04-25T13:08:03;2.35;;;0.80;;
80293;SDS011;69594;43.516;1.498;2023-04-25T13:10:30;4.80;;;1.40;;
80293;SDS011;69594;43.516;1.498;2023-04-25T13:13:01;1.00;;;0.70;;
80293;SDS011;69594;43.516;1.498;2023-04-25T13:15:27;1.48;;;0.88;;
80293;SDS011;69594;43.516;1.498;2023-04-25T13:17:53;1.80;;;0.98;;
80293;SDS011;69594;43.516;1.498;2023-04-25T13:20:18;1.57;;;1.13;;
80293;SDS011;69594;43.516;1.498;2023-04-25T13:22:47;3.97;;;1.00;;
80293;SDS011;69594;43.516;1.498;2023-04-25T13:25:13;1.10;;;1.00;;
80293;SDS011;69594;43.516;1.498;2023-04-25T13:27:38;1.23;;;1.00;;
80293;SDS011;69594;43.516;1.498;2023-04-25T13:30:07;1.03;;;0.93;;
80293;SDS011;69594;43.516;1.498;2023-04-25T13:32:36;1.42;;;1.10;;
80293;SDS011;69594;43.516;1.498;2023-04-25T13:35:02;2.55;;;1.80;;
80293;SDS011;69594;43.516;1.498;2023-04-25T13:37:29;1.35;;;1.20;;
80293;SDS011;69594;43.516;1.498;2023-04-25T13:39:57;1.52;;;1.20;;
80293;SDS011;69594;43.516;1.498;2023-04-25T13:42:24;2.10;;;1.20;;
80293;SDS011;69594;43.516;1.498;2023-04-25T13:44:49;1.27;;;1.13;;
80293;SDS011;69594;43.516;1.498;2023-04-25T13:47:16;1.93;;;1.50;;
80293;SDS011;69594;43.516;1.498;2023-04-25T13:49:41;1.00;;;0.90;;
80293;SDS011;69594;43.516;1.498;2023-04-25T13:52:08;1.30;;;0.90;;
80293;SDS011;69594;43.516;1.498;2023-04-25T13:54:33;1.10;;;0.80;;
80293;SDS011;69594;43.516;1.498;2023-04-25T13:56:59;2.70;;;0.80;;
80293;SDS011;69594;43.516;1.498;2023-04-25T13:59:25;1.55;;;0.82;;
80293;SDS011;69594;43.516;1.498;2023-04-25T14:01:53;1.03;;;0.97;;
80293;SDS011;69594;43.516;1.498;2023-04-25T14:04:18;1.02;;;0.93;;
80293;SDS011;69594;43.516;1.498;2023-04-25T14:06:44;2.07;;;0.67;;
80293;SDS011;69594;43.516;1.498;2023-04-25T14:09:09;1.10;;;0.80;;
80293;SDS011;69594;43.516;1.498;2023-04-25T14:11:38;1.20;;;1.00;;
80293;SDS011;69594;43.516;1.498;2023-04-25T14:14:04;1.02;;;0.90;;
80293;SDS011;69594;43.516;1.498;2023-04-25T14:16:30;1.17;;;0.77;;
80293;SDS011;69594;43.516;1.498;2023-04-25T14:18:57;0.98;;;0.80;;
80293;SDS011;69594;43.516;1.498;2023-04-25T14:21:23;1.08;;;0.80;;
80293;SDS011;69594;43.516;1.498;2023-04-25T14:23:48;1.10;;;0.73;;
80293;SDS011;69594;43.516;1.498;2023-04-25T14:26:14;1.25;;;0.90;;
80293;SDS011;69594;43.516;1.498;2023-04-25T14:28:39;1.37;;;1.00;;
80293;SDS011;69594;43.516;1.498;2023-04-25T14:31:05;1.27;;;0.90;;
80293;SDS011;69594;43.516;1.498;2023-04-25T14:33:30;1.70;;;1.10;;
80293;SDS011;69594;43.516;1.498;2023-04-25T14:35:56;1.38;;;1.20;;
80293;SDS011;69594;43.516;1.498;2023-04-25T14:38:22;3.80;;;1.00;;
80293;SDS011;69594;43.516;1.498;2023-04-25T14:40:48;1.10;;;1.00;;
80293;SDS011;69594;43.516;1.498;2023-04-25T14:43:15;1.10;;;0.90;;
80293;SDS011;69594;43.516;1.498;2023-04-25T14:45:40;0.90;;;0.80;;
80293;SDS011;69594;43.516;1.498;2023-04-25T14:48:06;1.35;;;0.55;;
80293;SDS011;69594;43.516;1.498;2023-04-25T14:50:32;0.80;;;0.80;;
80293;SDS011;69594;43.516;1.498;2023-04-25T14:52:57;2.30;;;0.60;;
80293;SDS011;69594;43.516;1.498;2023-04-25T14:55:25;0.70;;;0.70;;
80293;SDS011;69594;43.516;1.498;2023-04-25T14:57:54;1.37;;;0.70;;
80293;SDS011;69594;43.516;1.498;2023-04-25T15:00:20;0.68;;;0.60;;
80293;SDS011;69594;43.516;1.498;2023-04-25T15:02:47;0.80;;;0.80;;